Decoded Metar for KALW (WALLA WALLA in WA, USA) (IATA:ALW) | Meteo·Mobile Aviation Weather
aviador You're here:

KALW Decoded Metar

WALLA WALLA in WA, USA
Report Time2019-03-22 17:53:00
UTC Time2019-03-22 18:42:04
Flight Rules vfr VFR
Wind210° at 14 kt
W.Decomp.*RWY 20: 13.8 kt HW 2.4 kt LCW
RWY 16: 12.1 kt HW 7.0 kt RCW
RWY 25: 7.0 kt HW 12.1 kt LCW
W.Rank210° ranks 4
Current wind is above 210° avg. (9.1)
Visibility9999 m
Phenomena:N/A
Clouds:N/A
Expected CloudBase > 4,800 ft AGL from Temp-Dew spread
CeilingNone
Temp16°C (ISA +3)
Dew Point04°C (45% RH)
AAT9.7°C
QNH1013 hPa
Density Alt1,703 ft
Elevation1,191 ft
Report Wrong Elevation
Raw Report
KALW 221753Z 21014KT 10SM CLR 16/04 A2992 RMK AO2 SLP133 T01610039
10161 20083 50001=

Extra information for KALW:More info

Metar Taf Metar & Taf Last 4 Metars F.Rules Stats Wind Profile Meteogram Temp Stats Airport Information Weather charts Add Link Nearby VenuesMetar ALERT Operation Metar Decoded Social comments

AIRNAV info for KALW